createdAt,value
2019-05-20T00:00:03.201Z,12.80
2019-05-20T00:02:32.507Z,12.80
2019-05-20T00:05:01.740Z,12.70
2019-05-20T00:07:30.998Z,12.70
2019-05-20T00:10:00.244Z,12.80
2019-05-20T00:12:29.408Z,12.70
2019-05-20T00:14:58.583Z,12.70
2019-05-20T00:17:27.794Z,12.60
2019-05-20T00:19:57.080Z,12.60
2019-05-20T00:22:26.384Z,12.50
2019-05-20T00:24:55.636Z,12.40
2019-05-20T00:27:24.884Z,12.40
2019-05-20T00:29:54.147Z,12.30
2019-05-20T00:32:23.328Z,12.30
2019-05-20T00:34:52.578Z,12.40
2019-05-20T00:37:21.890Z,12.50
2019-05-20T00:39:51.242Z,12.50
2019-05-20T00:42:20.542Z,12.60
2019-05-20T00:44:49.790Z,12.70
2019-05-20T00:47:19.074Z,12.70
2019-05-20T00:49:48.332Z,12.70
2019-05-20T00:52:17.491Z,12.80
2019-05-20T00:54:46.658Z,12.80
2019-05-20T00:57:15.814Z,12.70
2019-05-20T00:59:45.079Z,12.70
2019-05-20T01:02:14.365Z,12.60
2019-05-20T01:04:43.630Z,12.60
2019-05-20T01:07:12.804Z,12.70
2019-05-20T01:09:42.166Z,12.70
2019-05-20T01:12:11.405Z,12.80
2019-05-20T01:14:40.604Z,12.80
2019-05-20T01:17:09.779Z,13.00
2019-05-20T01:19:39.051Z,13.00
2019-05-20T01:22:08.235Z,13.10
2019-05-20T01:24:37.418Z,13.10
2019-05-20T01:27:06.601Z,13.10
2019-05-20T01:29:35.861Z,13.10
2019-05-20T01:32:05.095Z,13.10
2019-05-20T01:34:34.287Z,13.10
2019-05-20T01:37:03.446Z,13.10
2019-05-20T01:39:32.667Z,13.10
2019-05-20T01:42:01.882Z,13.10
2019-05-20T01:44:31.096Z,13.10
2019-05-20T01:47:00.386Z,13.10
2019-05-20T01:49:29.569Z,13.10
2019-05-20T01:51:58.807Z,13.10
2019-05-20T01:54:28.042Z,13.10
2019-05-20T01:56:57.232Z,13.10
2019-05-20T01:59:26.387Z,13.00
2019-05-20T02:01:55.580Z,13.10
2019-05-20T02:04:24.915Z,13.10
2019-05-20T02:06:54.118Z,13.10
2019-05-20T02:09:23.278Z,13.10
2019-05-20T02:11:52.467Z,13.20
2019-05-20T02:14:23.837Z,13.30
2019-05-20T02:16:53.138Z,13.40
2019-05-20T02:19:22.310Z,13.50
2019-05-20T02:21:51.583Z,13.60
2019-05-20T02:24:20.752Z,13.60
2019-05-20T02:26:50.053Z,13.60
2019-05-20T02:29:19.218Z,13.70
2019-05-20T02:31:48.479Z,13.80
2019-05-20T02:34:17.635Z,13.90
2019-05-20T02:36:46.891Z,14.00
2019-05-20T02:39:16.128Z,14.10
2019-05-20T02:41:45.396Z,14.20
2019-05-20T02:44:14.802Z,14.20
2019-05-20T02:46:43.992Z,14.20
2019-05-20T02:49:13.146Z,14.10
2019-05-20T02:51:42.400Z,13.90
2019-05-20T02:54:11.643Z,13.80
2019-05-20T02:56:40.823Z,13.60
2019-05-20T02:59:09.981Z,13.50
2019-05-20T03:01:39.260Z,13.50
2019-05-20T03:04:12.257Z,13.40
2019-05-20T03:06:39.412Z,13.50
2019-05-20T03:09:11.889Z,13.50
2019-05-20T03:11:39.452Z,13.50
2019-05-20T03:14:08.760Z,13.50
2019-05-20T03:16:38.064Z,13.50
2019-05-20T03:19:07.395Z,13.50
2019-05-20T03:21:36.709Z,13.50
2019-05-20T03:24:05.987Z,13.50
2019-05-20T03:26:35.145Z,13.50
2019-05-20T03:29:04.327Z,13.50
2019-05-20T03:31:33.530Z,13.50
2019-05-20T03:34:02.913Z,13.50
2019-05-20T03:36:32.207Z,13.50
2019-05-20T03:39:01.516Z,13.50
2019-05-20T03:41:30.825Z,13.50
2019-05-20T03:44:00.104Z,13.50
2019-05-20T03:46:29.413Z,13.50
2019-05-20T03:48:58.625Z,13.50
2019-05-20T03:51:27.779Z,13.50
2019-05-20T03:53:56.980Z,13.50
2019-05-20T03:56:26.202Z,13.50
2019-05-20T03:58:55.419Z,13.50
2019-05-20T04:01:24.746Z,13.50
2019-05-20T04:03:54.013Z,13.50
2019-05-20T04:06:23.305Z,13.50
2019-05-20T04:08:52.490Z,13.50
2019-05-20T04:11:21.722Z,13.50
2019-05-20T04:13:50.975Z,13.50
2019-05-20T04:16:20.137Z,13.50
2019-05-20T04:18:53.536Z,13.50
2019-05-20T04:21:20.242Z,13.50
2019-05-20T04:23:49.739Z,13.50
2019-05-20T04:26:18.970Z,13.50
2019-05-20T04:28:48.191Z,13.60
2019-05-20T04:31:17.408Z,13.70
2019-05-20T04:33:46.569Z,13.70
2019-05-20T04:36:15.750Z,13.80
2019-05-20T04:38:44.911Z,13.80
2019-05-20T04:41:14.258Z,13.90
2019-05-20T04:43:43.512Z,13.90
2019-05-20T04:46:13.220Z,14.00
2019-05-20T04:48:42.512Z,14.00
2019-05-20T04:51:11.844Z,14.10
2019-05-20T04:53:40.995Z,14.20
2019-05-20T04:56:10.181Z,14.30
2019-05-20T04:58:39.403Z,14.40
2019-05-20T05:01:08.633Z,14.50
2019-05-20T05:03:37.872Z,14.70
2019-05-20T05:06:07.124Z,14.80
2019-05-20T05:08:36.545Z,14.90
2019-05-20T05:11:05.806Z,15.00
2019-05-20T05:13:35.041Z,15.20
2019-05-20T05:16:04.411Z,15.20
2019-05-20T05:18:33.712Z,15.30
2019-05-20T05:21:03.180Z,15.30
2019-05-20T05:23:32.540Z,15.20
2019-05-20T05:26:01.729Z,15.20
2019-05-20T05:28:30.978Z,15.30
2019-05-20T05:31:00.439Z,15.50
2019-05-20T05:33:29.599Z,15.70
2019-05-20T05:35:58.810Z,16.00
2019-05-20T05:38:27.972Z,16.10
2019-05-20T05:40:57.154Z,16.10
2019-05-20T05:43:26.310Z,16.20
2019-05-20T05:45:55.578Z,16.30
2019-05-20T05:48:24.868Z,16.50
2019-05-20T05:50:54.143Z,16.60
2019-05-20T05:53:23.397Z,16.90
2019-05-20T05:55:52.710Z,17.10
2019-05-20T05:58:21.985Z,17.50
2019-05-20T06:00:51.336Z,17.70
2019-05-20T06:03:20.626Z,17.90
2019-05-20T06:05:49.882Z,18.20
2019-05-20T06:08:19.153Z,18.40
2019-05-20T06:10:48.553Z,18.70
2019-05-20T06:13:17.715Z,18.90
2019-05-20T06:15:46.905Z,19.30
2019-05-20T06:18:16.136Z,19.60
2019-05-20T06:20:45.373Z,19.90
2019-05-20T06:23:14.593Z,20.20
2019-05-20T06:25:43.762Z,20.40
2019-05-20T06:28:12.952Z,20.40
2019-05-20T06:30:44.532Z,20.50
2019-05-20T06:33:13.856Z,20.40
2019-05-20T06:35:43.195Z,20.00
2019-05-20T06:38:17.592Z,19.60
2019-05-20T06:40:46.853Z,19.50
2019-05-20T06:43:16.103Z,19.30
2019-05-20T06:45:45.410Z,19.20
2019-05-20T06:48:14.668Z,19.10
2019-05-20T06:50:43.915Z,19.00
2019-05-20T06:53:13.141Z,18.90
2019-05-20T06:55:42.366Z,18.80
2019-05-20T06:58:11.563Z,18.90
2019-05-20T07:00:40.898Z,18.90
2019-05-20T07:03:10.159Z,18.90
2019-05-20T07:05:39.422Z,19.00
2019-05-20T07:08:08.703Z,19.10
2019-05-20T07:10:37.877Z,19.20
2019-05-20T07:13:07.143Z,19.20
2019-05-20T07:15:36.498Z,19.40
2019-05-20T07:18:05.841Z,19.50
2019-05-20T07:20:35.097Z,19.70
2019-05-20T07:23:04.363Z,19.90
2019-05-20T07:25:33.766Z,20.00
2019-05-20T07:28:03.043Z,20.20
2019-05-20T07:30:32.369Z,20.30
2019-05-20T07:33:01.645Z,20.40
2019-05-20T07:35:31.290Z,20.50
2019-05-20T07:38:00.920Z,20.60
2019-05-20T07:40:33.999Z,20.60
2019-05-20T07:43:04.454Z,20.60
2019-05-20T07:45:35.917Z,20.70
2019-05-20T07:48:05.999Z,20.80
2019-05-20T07:50:38.299Z,20.80
2019-05-20T07:53:08.271Z,21.20
2019-05-20T07:55:42.299Z,21.50
2019-05-20T07:58:13.528Z,21.80
2019-05-20T08:00:42.941Z,22.10
2019-05-20T08:03:12.126Z,22.10
2019-05-20T08:05:41.282Z,21.90
2019-05-20T08:08:10.547Z,21.80
2019-05-20T08:10:39.720Z,21.80
2019-05-20T08:13:09.003Z,22.00
2019-05-20T08:15:38.267Z,22.10
2019-05-20T08:18:07.842Z,22.00
2019-05-20T08:20:37.013Z,22.00
2019-05-20T08:23:06.275Z,22.00
2019-05-20T08:25:35.604Z,21.90
2019-05-20T08:28:04.862Z,21.90
2019-05-20T08:30:36.043Z,21.70
2019-05-20T08:33:05.877Z,21.50
2019-05-20T08:35:35.145Z,21.40
2019-05-20T08:38:04.438Z,21.40
2019-05-20T08:40:33.614Z,21.40
2019-05-20T08:43:02.955Z,21.50
2019-05-20T08:45:32.261Z,21.60
2019-05-20T08:48:01.518Z,21.50
2019-05-20T08:50:30.755Z,21.60
2019-05-20T08:52:59.941Z,21.60
2019-05-20T08:55:29.180Z,21.70
2019-05-20T08:57:58.478Z,21.70
2019-05-20T09:00:28.136Z,21.90
2019-05-20T09:02:57.502Z,21.90
2019-05-20T09:05:28.322Z,21.90
2019-05-20T09:08:03.035Z,21.90
2019-05-20T09:10:29.014Z,22.10
2019-05-20T09:12:58.191Z,22.20
2019-05-20T09:15:27.900Z,22.20
2019-05-20T09:17:57.331Z,22.30
2019-05-20T09:20:26.615Z,22.30
2019-05-20T09:22:55.791Z,22.10
2019-05-20T09:25:32.173Z,22.10
2019-05-20T09:28:02.041Z,22.10
2019-05-20T09:30:31.247Z,22.30
2019-05-20T09:33:00.652Z,22.40
2019-05-20T09:35:29.992Z,22.60
2019-05-20T09:37:59.303Z,22.50
2019-05-20T09:40:39.407Z,22.60
2019-05-20T09:43:08.713Z,22.70
2019-05-20T09:45:38.298Z,22.70
2019-05-20T09:48:08.037Z,22.60
2019-05-20T09:50:37.303Z,22.60
2019-05-20T09:53:07.680Z,22.50
2019-05-20T09:55:37.241Z,22.50
2019-05-20T09:58:07.357Z,22.50
2019-05-20T10:00:36.922Z,22.50
2019-05-20T10:03:07.305Z,22.40
2019-05-20T10:05:37.604Z,22.40
2019-05-20T10:08:07.362Z,22.30
2019-05-20T10:10:36.880Z,22.40
2019-05-20T10:13:06.951Z,22.30
2019-05-20T10:15:36.636Z,22.30
2019-05-20T10:18:05.961Z,22.30
2019-05-20T10:20:35.275Z,22.30
2019-05-20T10:23:04.509Z,22.30
2019-05-20T10:25:33.852Z,22.30
2019-05-20T10:28:03.093Z,22.20
2019-05-20T10:30:32.359Z,22.20
2019-05-20T10:33:01.555Z,22.20
2019-05-20T10:35:30.840Z,22.10
2019-05-20T10:38:00.079Z,22.20
2019-05-20T10:40:29.297Z,22.30
2019-05-20T10:42:58.595Z,22.30
2019-05-20T10:45:27.787Z,22.40
2019-05-20T10:47:56.948Z,22.40
2019-05-20T10:50:26.227Z,22.40
2019-05-20T10:52:55.528Z,22.60
2019-05-20T10:55:24.778Z,22.50
2019-05-20T10:57:53.936Z,22.50
2019-05-20T11:00:23.756Z,22.60
2019-05-20T11:02:52.955Z,22.80
2019-05-20T11:05:22.153Z,22.70
2019-05-20T11:07:51.787Z,22.60
2019-05-20T11:10:21.355Z,22.30
2019-05-20T11:12:50.542Z,22.40
2019-05-20T11:15:19.931Z,22.40
2019-05-20T11:17:49.192Z,22.60
2019-05-20T11:20:18.460Z,22.50
2019-05-20T11:22:47.748Z,22.60
2019-05-20T11:25:17.304Z,22.70
2019-05-20T11:27:46.573Z,22.50
2019-05-20T11:30:16.015Z,22.30
2019-05-20T11:32:45.273Z,22.30
2019-05-20T11:35:14.832Z,22.30
2019-05-20T11:37:44.188Z,22.20
2019-05-20T11:40:14.135Z,22.20
2019-05-20T11:42:43.846Z,22.20
2019-05-20T11:45:14.562Z,22.10
2019-05-20T11:47:43.789Z,22.20
2019-05-20T11:50:13.561Z,22.30
2019-05-20T11:52:42.882Z,22.30
2019-05-20T11:55:12.152Z,22.40
2019-05-20T11:57:41.336Z,22.20
2019-05-20T12:00:12.206Z,22.10
2019-05-20T12:02:41.468Z,22.10
2019-05-20T12:05:10.899Z,22.10
2019-05-20T12:07:40.115Z,22.10
2019-05-20T12:10:10.249Z,22.00
2019-05-20T12:12:39.436Z,22.10
2019-05-20T12:15:09.547Z,22.20
2019-05-20T12:17:38.734Z,22.30
2019-05-20T12:20:10.891Z,22.20
2019-05-20T12:22:39.529Z,22.10
2019-05-20T12:25:09.490Z,22.20
2019-05-20T12:27:39.043Z,22.10
2019-05-20T12:30:08.574Z,22.10
2019-05-20T12:32:37.790Z,22.10
2019-05-20T12:35:07.426Z,22.10
2019-05-20T12:37:37.549Z,22.10
2019-05-20T12:40:08.412Z,22.00
2019-05-20T12:42:38.200Z,22.00
2019-05-20T12:45:08.162Z,22.10
2019-05-20T12:47:37.510Z,22.10
2019-05-20T12:50:07.080Z,22.20
2019-05-20T12:52:36.323Z,22.30
2019-05-20T12:55:09.213Z,22.30
2019-05-20T12:57:37.481Z,22.40
2019-05-20T13:00:07.171Z,22.50
2019-05-20T13:02:36.470Z,22.50
2019-05-20T13:05:06.319Z,22.50
2019-05-20T13:07:35.600Z,22.40
2019-05-20T13:10:26.044Z,22.50
2019-05-20T13:12:36.818Z,22.50
2019-05-20T13:15:06.366Z,22.60
2019-05-20T13:17:35.757Z,22.70
2019-05-20T13:20:05.736Z,22.80
2019-05-20T13:22:34.902Z,22.90
2019-05-20T13:25:04.253Z,22.80
2019-05-20T13:27:33.499Z,22.90
2019-05-20T13:30:02.993Z,22.90
2019-05-20T13:32:32.233Z,22.90
2019-05-20T13:35:01.571Z,22.90
2019-05-20T13:37:30.748Z,22.90
2019-05-20T13:40:02.852Z,22.90
2019-05-20T13:42:30.907Z,23.00
2019-05-20T13:45:00.165Z,22.90
2019-05-20T13:47:29.319Z,22.90
2019-05-20T13:49:58.502Z,22.80
2019-05-20T13:52:27.875Z,22.80
2019-05-20T13:54:57.115Z,22.80
2019-05-20T13:57:26.303Z,22.80
2019-05-20T13:59:55.624Z,22.80
2019-05-20T14:02:24.968Z,22.70
2019-05-20T14:04:54.183Z,22.50
2019-05-20T14:07:23.471Z,22.30
2019-05-20T14:09:52.636Z,22.20
2019-05-20T14:12:21.894Z,22.10
2019-05-20T14:14:51.149Z,22.00
2019-05-20T14:17:20.463Z,21.90
2019-05-20T14:19:49.816Z,21.60
2019-05-20T14:22:19.141Z,21.40
2019-05-20T14:24:48.382Z,21.20
2019-05-20T14:27:17.779Z,21.10
2019-05-20T14:29:46.940Z,21.00
2019-05-20T14:32:16.135Z,20.90
2019-05-20T14:34:45.395Z,20.80
2019-05-20T14:37:14.670Z,20.80
2019-05-20T14:39:44.035Z,20.70
2019-05-20T14:42:13.251Z,20.50
2019-05-20T14:44:42.443Z,20.50
2019-05-20T14:47:11.717Z,20.40
2019-05-20T14:49:41.036Z,20.40
2019-05-20T14:52:10.231Z,20.20
2019-05-20T14:54:39.379Z,20.00
2019-05-20T14:57:08.572Z,20.00
2019-05-20T14:59:37.741Z,19.90
2019-05-20T15:02:07.071Z,19.80
2019-05-20T15:04:36.392Z,19.70
2019-05-20T15:07:05.843Z,19.60
2019-05-20T15:09:35.080Z,19.50
2019-05-20T15:12:04.432Z,19.50
2019-05-20T15:14:33.666Z,19.40
2019-05-20T15:17:02.850Z,19.40
2019-05-20T15:19:31.998Z,19.40
2019-05-20T15:22:01.223Z,19.40
2019-05-20T15:24:30.452Z,19.30
2019-05-20T15:26:59.803Z,19.30
2019-05-20T15:29:29.211Z,19.40
2019-05-20T15:31:58.488Z,19.40
2019-05-20T15:34:27.664Z,19.50
2019-05-20T15:36:56.881Z,19.50
2019-05-20T15:39:26.118Z,19.60
2019-05-20T15:41:55.540Z,19.50
2019-05-20T15:44:24.903Z,19.60
2019-05-20T15:46:54.169Z,19.50
2019-05-20T15:49:23.489Z,19.60
2019-05-20T15:51:52.746Z,19.70
2019-05-20T15:54:22.005Z,19.80
2019-05-20T15:56:51.215Z,19.90
2019-05-20T15:59:20.402Z,20.00
2019-05-20T16:01:49.571Z,20.00
2019-05-20T16:04:18.840Z,20.00
2019-05-20T16:06:47.992Z,19.90
2019-05-20T16:09:17.655Z,19.70
2019-05-20T16:11:47.024Z,19.50
2019-05-20T16:14:16.297Z,19.40
2019-05-20T16:16:45.609Z,19.10
2019-05-20T16:19:14.868Z,19.00
2019-05-20T16:21:47.751Z,18.90
2019-05-20T16:24:15.079Z,18.90
2019-05-20T16:26:44.240Z,18.80
2019-05-20T16:29:13.499Z,18.70
2019-05-20T16:31:42.736Z,18.70
2019-05-20T16:34:12.037Z,18.60
2019-05-20T16:36:41.238Z,18.60
2019-05-20T16:39:10.663Z,18.60
2019-05-20T16:41:39.823Z,18.60
2019-05-20T16:44:09.082Z,18.50
2019-05-20T16:46:38.267Z,18.50
2019-05-20T16:49:07.525Z,18.40
2019-05-20T16:51:36.857Z,18.30
2019-05-20T16:54:06.327Z,18.30
2019-05-20T16:56:35.486Z,18.30
2019-05-20T16:59:04.671Z,18.20
2019-05-20T17:01:45.561Z,18.10
2019-05-20T17:04:04.918Z,18.10
2019-05-20T17:06:34.081Z,18.10
2019-05-20T17:09:03.959Z,18.10
2019-05-20T17:11:33.192Z,18.00
2019-05-20T17:14:02.390Z,18.00
2019-05-20T17:16:31.638Z,18.00
2019-05-20T17:19:00.836Z,18.00
2019-05-20T17:21:30.105Z,18.00
2019-05-20T17:23:59.298Z,17.90
2019-05-20T17:26:28.550Z,17.80
2019-05-20T17:28:57.895Z,17.80
2019-05-20T17:31:30.172Z,17.80
2019-05-20T17:33:58.115Z,17.80
2019-05-20T17:36:27.271Z,17.80
2019-05-20T17:38:56.430Z,17.80
2019-05-20T17:41:25.718Z,17.70
2019-05-20T17:43:54.940Z,17.70
2019-05-20T17:46:24.328Z,17.70
2019-05-20T17:48:53.591Z,17.60
2019-05-20T17:51:22.855Z,17.60
2019-05-20T17:53:52.007Z,17.50
2019-05-20T17:56:21.192Z,17.40
2019-05-20T17:58:50.346Z,17.40
2019-05-20T18:01:19.599Z,17.40
2019-05-20T18:03:48.838Z,17.40
2019-05-20T18:06:18.023Z,17.40
2019-05-20T18:08:50.029Z,17.30
2019-05-20T18:11:19.483Z,17.20
2019-05-20T18:13:48.762Z,17.20
2019-05-20T18:16:18.015Z,17.20
2019-05-20T18:18:47.212Z,17.20
2019-05-20T18:21:16.609Z,17.20
2019-05-20T18:23:45.911Z,17.20
2019-05-20T18:26:15.115Z,17.20
2019-05-20T18:28:44.270Z,17.20
2019-05-20T18:31:13.523Z,17.20
2019-05-20T18:33:42.686Z,17.10
2019-05-20T18:36:11.938Z,17.10
2019-05-20T18:38:41.241Z,17.00
2019-05-20T18:41:10.576Z,16.90
2019-05-20T18:43:39.819Z,16.90
2019-05-20T18:46:09.011Z,16.90
2019-05-20T18:48:38.247Z,16.90
2019-05-20T18:51:07.448Z,16.90
2019-05-20T18:53:36.616Z,16.80
2019-05-20T18:56:05.820Z,16.80
2019-05-20T18:58:35.042Z,16.80
2019-05-20T19:01:04.712Z,16.80
2019-05-20T19:03:34.381Z,16.90
2019-05-20T19:06:03.894Z,16.80
2019-05-20T19:08:33.047Z,16.70
2019-05-20T19:11:02.305Z,16.70
2019-05-20T19:13:31.466Z,16.60
2019-05-20T19:16:00.660Z,16.60
2019-05-20T19:18:29.895Z,16.50
2019-05-20T19:20:59.111Z,16.50
2019-05-20T19:23:28.368Z,16.30
2019-05-20T19:25:57.626Z,16.20
2019-05-20T19:28:26.788Z,16.00
2019-05-20T19:30:56.019Z,15.90
2019-05-20T19:33:25.211Z,15.80
2019-05-20T19:35:54.451Z,15.70
2019-05-20T19:38:23.704Z,15.70
2019-05-20T19:40:52.856Z,15.70
2019-05-20T19:43:22.126Z,15.70
2019-05-20T19:45:51.389Z,15.70
2019-05-20T19:48:20.738Z,15.70
2019-05-20T19:50:50.093Z,15.70
2019-05-20T19:53:19.428Z,15.70
2019-05-20T19:55:48.711Z,15.70
2019-05-20T19:58:18.099Z,15.70
2019-05-20T20:00:47.295Z,15.70
2019-05-20T20:03:16.482Z,15.70
2019-05-20T20:05:45.714Z,15.70
2019-05-20T20:08:14.905Z,15.70
2019-05-20T20:10:44.072Z,15.70
2019-05-20T20:13:13.424Z,15.60
2019-05-20T20:15:43.079Z,15.60
2019-05-20T20:18:12.275Z,15.60
2019-05-20T20:20:41.526Z,15.60
2019-05-20T20:23:10.806Z,15.70
2019-05-20T20:25:40.317Z,15.60
2019-05-20T20:28:09.499Z,15.60
2019-05-20T20:30:38.867Z,15.50
2019-05-20T20:33:08.064Z,15.50
2019-05-20T20:35:38.318Z,15.50
2019-05-20T20:38:07.884Z,15.50
2019-05-20T20:40:37.039Z,15.50
2019-05-20T20:43:06.226Z,15.40
2019-05-20T20:45:35.469Z,15.40
2019-05-20T20:48:04.654Z,15.40
2019-05-20T20:50:33.932Z,15.30
2019-05-20T20:53:03.226Z,15.30
2019-05-20T20:55:32.530Z,15.20
2019-05-20T20:58:01.882Z,15.20
2019-05-20T21:00:31.126Z,15.20
2019-05-20T21:03:00.342Z,15.20
2019-05-20T21:05:29.499Z,15.20
2019-05-20T21:07:58.772Z,15.10
2019-05-20T21:10:27.925Z,15.20
2019-05-20T21:12:57.107Z,15.10
2019-05-20T21:15:26.272Z,15.20
2019-05-20T21:17:55.527Z,15.10
2019-05-20T21:20:24.787Z,15.20
2019-05-20T21:22:54.080Z,15.20
2019-05-20T21:25:23.295Z,15.20
2019-05-20T21:27:52.606Z,15.10
2019-05-20T21:30:21.751Z,15.10
2019-05-20T21:32:50.992Z,15.20
2019-05-20T21:35:20.267Z,15.10
2019-05-20T21:37:49.421Z,15.20
2019-05-20T21:40:18.759Z,15.10
2019-05-20T21:42:47.922Z,15.10
2019-05-20T21:45:17.184Z,15.00
2019-05-20T21:47:46.346Z,15.00
2019-05-20T21:50:15.630Z,15.00
2019-05-20T21:52:44.791Z,15.00
2019-05-20T21:55:14.079Z,15.00
2019-05-20T21:57:43.295Z,15.00
2019-05-20T22:00:16.182Z,15.00
2019-05-20T22:02:45.416Z,15.00
2019-05-20T22:05:14.684Z,14.90
2019-05-20T22:07:43.929Z,15.00
2019-05-20T22:10:13.311Z,14.90
2019-05-20T22:12:42.551Z,14.90
2019-05-20T22:15:12.185Z,14.90
2019-05-20T22:17:41.472Z,14.90
2019-05-20T22:20:11.057Z,14.90
2019-05-20T22:22:59.285Z,14.90
2019-05-20T22:25:28.575Z,14.90
2019-05-20T22:27:57.736Z,15.00
2019-05-20T22:30:27.001Z,14.90
2019-05-20T22:32:56.310Z,14.90
2019-05-20T22:35:25.571Z,14.90
2019-05-20T22:37:54.724Z,14.90
2019-05-20T22:40:23.983Z,14.90
2019-05-20T22:42:53.248Z,14.90
2019-05-20T22:45:22.452Z,14.90
2019-05-20T22:47:51.691Z,15.00
2019-05-20T22:50:20.951Z,15.00
2019-05-20T22:52:50.190Z,15.00
2019-05-20T22:55:19.461Z,15.00
2019-05-20T22:57:48.616Z,15.10
2019-05-20T23:00:18.087Z,15.10
2019-05-20T23:02:47.346Z,15.10
2019-05-20T23:05:16.643Z,15.10
2019-05-20T23:07:45.918Z,15.10
2019-05-20T23:10:15.297Z,15.10
2019-05-20T23:12:44.523Z,15.10
2019-05-20T23:15:13.824Z,15.10
2019-05-20T23:17:43.042Z,15.10
2019-05-20T23:20:12.537Z,15.10
2019-05-20T23:22:41.856Z,15.10
2019-05-20T23:25:11.138Z,15.10
2019-05-20T23:27:40.316Z,15.10
2019-05-20T23:30:09.579Z,15.10
2019-05-20T23:32:38.745Z,15.10
2019-05-20T23:35:08.083Z,15.20
2019-05-20T23:37:37.263Z,15.20
2019-05-20T23:40:06.888Z,15.20
2019-05-20T23:42:36.180Z,15.30
2019-05-20T23:45:05.744Z,15.20
2019-05-20T23:47:34.932Z,15.20
2019-05-20T23:50:04.211Z,15.20
2019-05-20T23:52:33.394Z,15.20
2019-05-20T23:55:02.696Z,15.20
2019-05-20T23:57:31.949Z,15.20
